Marion, OH

8:52 AM EDT on May 06, 2015 (GMT -0400)
Ohio State University | | Change Station
CLOSE
Current Station
Airport
Location: Ohio State University,
Elevation: 906 ft
Nearby Weather Stations
Active Advisory: Dense Fog Advisory

Elev 906 ft 40.08 °N, 83.08 °W | Updated 59 minutes ago

Fog
Fog
58 °F
Feels Like 58 °F
N
0
Wind Variable Wind from North

Today
High -- | Low -- °F
--% Chance of Precip.
Yesterday
High -- | Low -- °F
Precip. -- in
6:25 AM 8:33 PM
Waning Gibbous, 94% visible
Pressure 30.21 in
Visibility 3.0 miles
Clouds Clear
Dew Point 55 °F
Humidity 90%
Rainfall 0.00 in
Snow Depth Not available.
UV 1 out of 12
Pollen 7.80 out of 12
Air Quality Not available.
Flu Activity Regional
METAR KOSU 061153Z 00000KT 3SM BR CLR 14/13 A3022 RMK AO2 SLP230 T01440128 10156 20117 53005

More Conditions Fewer Conditions

Pressure 30.21 in
Visibility 3.0 miles
Clouds Clear
Dew Point 55 °F
Humidity 90%
Rainfall 0.00 in
Snow Depth Not available.
UV 1 out of 12
Pollen 7.80 out of 12
Air Quality Not available.
Flu Activity Regional
METAR KOSU 061153Z 00000KT 3SM BR CLR 14/13 A3022 RMK AO2 SLP230 T01440128 10156 20117 53005

More Conditions Fewer Conditions

10-Day Weather Forecast

Almanac

Astronomy

May. 06, 2015 Rise Set
Actual Time
Civil Twilight
Nautical Twilight
Astronomical Twilight
Moon
Length of Visible Light
Length of Day
Tomorrow will be .
, % of the Moon is Illuminated

Today's Extremes

State Highs State Lows

Community

WunderPhotos

Upload Photos

1,818,884 photos uploaded!

WunderBlogs® & News

Nearby

Air Quality

  Air Quality AQ Index Pollutant
Not available.

Snow Depth

Station Depth Elevation

Earthquake Activity

City Distance Mag. Time & Date
Minimum magnitude displayed is 2.5.

Coastal Water Temperatures

Place Temperature

Stations

Nearby Weather Stations

Station Location Temp. Windchill Dew Point Humidity Wind Precip. Elev Updated Type
                   
Dense Fog Advisory
Statement as of 5:59 AM EDT on May 06, 2015

... Dense fog advisory in effect until 10 am EDT this morning...

The National Weather Service in Cleveland has issued a dense fog
advisory... which is in effect until 10 am EDT this morning.

* Visibilities... widespread less than a quarter mile and near zero
in places.

* Timing... through mid morning with conditions then rapidly
improving.

* Impacts... poor visibilities will result in hazardous travel
conditions.

Precautionary/preparedness actions...

A dense fog advisory is issued when dense fog will substantially
reduce visibilities, resulting in hazardous driving conditions in
some areas. Motorists are advised to use caution and slow down,
as objects on and near roadways will be seen only at close range.
Stay tuned to weather radio for further details or updates.


Kubina